createdAt,value
2023-01-13T00:00:18.702Z,-0.39
2023-01-13T00:01:18.680Z,0
2023-01-13T00:02:18.705Z,0
2023-01-13T00:03:18.671Z,-0.17
2023-01-13T00:04:18.673Z,-0.28
2023-01-13T00:05:18.674Z,0
2023-01-13T00:06:18.672Z,-0.17
2023-01-13T00:07:18.695Z,-0.39
2023-01-13T00:08:18.698Z,-0.28
2023-01-13T00:09:18.678Z,-0.28
2023-01-13T00:10:18.700Z,-0.39
2023-01-13T00:11:18.677Z,-0.28
2023-01-13T00:12:18.686Z,-0.39
2023-01-13T00:13:18.689Z,-0.39
2023-01-13T00:14:18.696Z,-0.56
2023-01-13T00:15:18.709Z,-0.56
2023-01-13T00:16:18.783Z,-0.17
2023-01-13T00:17:18.696Z,-0.39
2023-01-13T00:18:18.687Z,-0.39
2023-01-13T00:19:18.691Z,-0.56
2023-01-13T00:20:18.694Z,-0.39
2023-01-13T00:21:18.690Z,-0.28
2023-01-13T00:22:18.699Z,-0.39
2023-01-13T00:23:18.701Z,-0.28
2023-01-13T00:24:18.724Z,-0.39
2023-01-13T00:25:18.705Z,-0.67
2023-01-13T00:26:18.717Z,-0.39
2023-01-13T00:27:18.696Z,-0.56
2023-01-13T00:28:18.709Z,-0.39
2023-01-13T00:29:18.710Z,-0.56
2023-01-13T00:30:18.703Z,-0.17
2023-01-13T00:31:18.737Z,-0.67
2023-01-13T00:32:18.702Z,-0.28
2023-01-13T00:33:18.707Z,-0.28
2023-01-13T00:34:18.713Z,-0.39
2023-01-13T00:35:18.700Z,-0.39
2023-01-13T00:36:18.708Z,-0.28
2023-01-13T00:37:18.705Z,-0.39
2023-01-13T00:38:18.722Z,-0.28
2023-01-13T00:39:18.728Z,-0.56
2023-01-13T00:40:18.734Z,-0.39
2023-01-13T00:41:18.719Z,-0.39
2023-01-13T00:42:18.736Z,-0.28
2023-01-13T00:43:18.720Z,-0.56
2023-01-13T00:44:18.717Z,-0.56
2023-01-13T00:45:18.726Z,-0.39
2023-01-13T00:46:18.757Z,-0.56
2023-01-13T00:47:18.732Z,-0.56
2023-01-13T00:48:18.724Z,-0.39
2023-01-13T00:49:18.733Z,-0.39
2023-01-13T00:50:18.738Z,-0.39
2023-01-13T00:51:18.732Z,-0.56
2023-01-13T00:52:18.747Z,-0.56
2023-01-13T00:53:18.727Z,-0.39
2023-01-13T00:54:18.746Z,-0.39
2023-01-13T00:55:18.744Z,-0.28
2023-01-13T00:56:22.070Z,-0.56
2023-01-13T00:57:18.733Z,-0.39
2023-01-13T00:58:18.742Z,-0.39
2023-01-13T00:59:18.740Z,-0.28
2023-01-13T01:00:18.740Z,-0.39
2023-01-13T01:01:18.844Z,-0.28
2023-01-13T01:02:18.784Z,-0.39
2023-01-13T01:03:18.742Z,-0.39
2023-01-13T01:04:18.735Z,-0.39
2023-01-13T01:05:18.746Z,-0.39
2023-01-13T01:06:18.742Z,-0.28
2023-01-13T01:07:18.746Z,-0.39
2023-01-13T01:08:18.745Z,-0.39
2023-01-13T01:09:18.750Z,-0.39
2023-01-13T01:10:18.751Z,-0.83
2023-01-13T01:11:18.747Z,-0.67
2023-01-13T01:12:18.777Z,-0.67
2023-01-13T01:13:18.748Z,-0.56
2023-01-13T01:14:18.753Z,-0.39
2023-01-13T01:15:18.753Z,-0.67
2023-01-13T01:16:18.808Z,-0.39
2023-01-13T01:17:18.762Z,-0.39
2023-01-13T01:18:18.764Z,-0.28
2023-01-13T01:19:18.776Z,-0.67
2023-01-13T01:20:18.769Z,-0.39
2023-01-13T01:21:18.759Z,-0.39
2023-01-13T01:22:18.772Z,-0.56
2023-01-13T01:23:18.761Z,-0.83
2023-01-13T01:24:18.773Z,-0.39
2023-01-13T01:25:18.787Z,-0.39
2023-01-13T01:26:18.794Z,-0.67
2023-01-13T01:27:18.759Z,-0.56
2023-01-13T01:28:18.789Z,-0.39
2023-01-13T01:29:18.773Z,-0.39
2023-01-13T01:30:18.785Z,-0.56
2023-01-13T01:31:18.849Z,-0.67
2023-01-13T01:32:18.775Z,-0.39
2023-01-13T01:33:18.785Z,-0.39
2023-01-13T01:34:18.775Z,-0.39
2023-01-13T01:35:18.771Z,-0.39
2023-01-13T01:36:18.777Z,-0.39
2023-01-13T01:37:18.767Z,-0.39
2023-01-13T01:38:18.780Z,-0.56
2023-01-13T01:39:18.792Z,-0.39
2023-01-13T01:40:18.774Z,-0.56
2023-01-13T01:41:18.783Z,-0.39
2023-01-13T01:42:18.782Z,-0.39
2023-01-13T01:43:18.782Z,-0.39
2023-01-13T01:44:18.799Z,-0.67
2023-01-13T01:45:18.784Z,-0.56
2023-01-13T01:46:18.822Z,-0.56
2023-01-13T01:47:18.782Z,-0.67
2023-01-13T01:48:18.777Z,-0.39
2023-01-13T01:49:18.784Z,-0.56
2023-01-13T01:50:18.788Z,-0.56
2023-01-13T01:51:18.788Z,-0.39
2023-01-13T01:52:18.786Z,-0.39
2023-01-13T01:53:18.787Z,-0.67
2023-01-13T01:54:18.789Z,-0.39
2023-01-13T01:55:18.794Z,-0.39
2023-01-13T01:56:18.790Z,-0.39
2023-01-13T01:57:18.813Z,-0.83
2023-01-13T01:58:18.801Z,-0.39
2023-01-13T01:59:18.796Z,-0.39
2023-01-13T02:00:18.840Z,-0.39
2023-01-13T02:01:18.949Z,-0.39
2023-01-13T02:02:18.882Z,-0.39
2023-01-13T02:03:18.815Z,-0.28
2023-01-13T02:04:18.790Z,-0.39
2023-01-13T02:05:18.802Z,-0.56
2023-01-13T02:06:18.795Z,-0.56
2023-01-13T02:07:18.826Z,-0.39
2023-01-13T02:08:18.805Z,-0.56
2023-01-13T02:09:18.803Z,-0.56
2023-01-13T02:10:18.798Z,-0.39
2023-01-13T02:11:18.795Z,-0.67
2023-01-13T02:12:18.816Z,-0.67
2023-01-13T02:13:18.809Z,-0.39
2023-01-13T02:14:18.798Z,-0.39
2023-01-13T02:15:18.804Z,-0.39
2023-01-13T02:16:18.904Z,-0.39
2023-01-13T02:17:18.813Z,-0.28
2023-01-13T02:18:18.816Z,-0.28
2023-01-13T02:19:18.807Z,-0.39
2023-01-13T02:20:18.805Z,-0.39
2023-01-13T02:21:18.803Z,-0.39
2023-01-13T02:22:18.807Z,-0.39
2023-01-13T02:23:18.803Z,-0.39
2023-01-13T02:24:18.810Z,-0.39
2023-01-13T02:25:18.807Z,-0.56
2023-01-13T02:26:18.805Z,-0.39
2023-01-13T02:27:18.804Z,-0.39
2023-01-13T02:28:18.834Z,-0.39
2023-01-13T02:29:18.815Z,-0.56
2023-01-13T02:30:18.845Z,-0.67
2023-01-13T02:31:18.858Z,-0.56
2023-01-13T02:32:18.829Z,-0.39
2023-01-13T02:33:18.807Z,-0.67
2023-01-13T02:34:18.806Z,-0.56
2023-01-13T02:35:18.803Z,-0.39
2023-01-13T02:36:18.811Z,-0.39
2023-01-13T02:37:18.816Z,-0.56
2023-01-13T02:38:18.826Z,-0.28
2023-01-13T02:39:18.796Z,-0.39
2023-01-13T02:40:18.819Z,-0.67
2023-01-13T02:41:18.804Z,-0.39
2023-01-13T02:42:18.807Z,-0.39
2023-01-13T02:43:18.807Z,-0.39
2023-01-13T02:44:18.831Z,-0.67
2023-01-13T02:45:18.836Z,-0.56
2023-01-13T02:46:18.807Z,-0.67
2023-01-13T02:47:18.806Z,-0.39
2023-01-13T02:48:18.838Z,-0.56
2023-01-13T02:49:18.805Z,-0.39
2023-01-13T02:50:18.838Z,-0.56
2023-01-13T02:51:18.824Z,-0.56
2023-01-13T02:52:18.814Z,-0.56
2023-01-13T02:53:18.818Z,-0.83
2023-01-13T02:54:18.825Z,-0.39
2023-01-13T02:55:18.823Z,-0.67
2023-01-13T02:56:18.826Z,-1
2023-01-13T02:57:18.818Z,-0.39
2023-01-13T02:58:18.816Z,-0.39
2023-01-13T02:59:18.811Z,-0.56
2023-01-13T03:00:18.829Z,-0.39
2023-01-13T03:01:18.909Z,-0.56
2023-01-13T03:02:19.006Z,-0.39
2023-01-13T03:03:18.823Z,-1
2023-01-13T03:04:18.848Z,-0.56
2023-01-13T03:05:18.822Z,-0.39
2023-01-13T03:06:18.841Z,-0.28
2023-01-13T03:07:18.825Z,-0.39
2023-01-13T03:08:18.829Z,-0.39
2023-01-13T03:09:18.849Z,-0.39
2023-01-13T03:10:18.838Z,-0.39
2023-01-13T03:11:18.833Z,-0.39
2023-01-13T03:12:18.844Z,-0.39
2023-01-13T03:13:18.844Z,-0.56
2023-01-13T03:14:18.834Z,-0.28
2023-01-13T03:15:18.844Z,-0.39
2023-01-13T03:16:18.876Z,-0.28
2023-01-13T03:17:18.846Z,-0.56
2023-01-13T03:18:18.853Z,-0.56
2023-01-13T03:19:18.850Z,-0.67
2023-01-13T03:20:18.883Z,-0.67
2023-01-13T03:21:18.843Z,-0.39
2023-01-13T03:22:18.851Z,-0.28
2023-01-13T03:23:18.853Z,-0.39
2023-01-13T03:24:18.846Z,-0.28
2023-01-13T03:25:18.844Z,0
2023-01-13T03:26:18.844Z,-0.39
2023-01-13T03:27:18.860Z,-0.28
2023-01-13T03:28:18.853Z,-0.28
2023-01-13T03:29:18.857Z,-0.39
2023-01-13T03:30:18.856Z,-0.67
2023-01-13T03:31:18.856Z,-0.39
2023-01-13T03:32:18.859Z,0
2023-01-13T03:33:18.859Z,-0.28
2023-01-13T03:34:18.874Z,-0.39
2023-01-13T03:35:18.860Z,-0.28
2023-01-13T03:36:18.902Z,-0.17
2023-01-13T03:37:18.857Z,-0.39
2023-01-13T03:38:18.875Z,-0.28
2023-01-13T03:39:18.872Z,-0.39
2023-01-13T03:40:18.879Z,-0.17
2023-01-13T03:41:18.891Z,-0.39
2023-01-13T03:42:18.900Z,-0.17
2023-01-13T03:43:18.868Z,-0.28
2023-01-13T03:44:18.871Z,-0.39
2023-01-13T03:45:18.885Z,-0.67
2023-01-13T03:46:18.905Z,-0.28
2023-01-13T03:47:18.878Z,-0.39
2023-01-13T03:48:18.881Z,-0.28
2023-01-13T03:49:18.880Z,-0.17
2023-01-13T03:50:18.871Z,-0.39
2023-01-13T03:51:18.871Z,-0.39
2023-01-13T03:52:18.910Z,0
2023-01-13T03:53:18.889Z,-0.17
2023-01-13T03:54:18.880Z,0
2023-01-13T03:55:18.863Z,0
2023-01-13T03:56:18.899Z,0
2023-01-13T03:57:18.886Z,-0.17
2023-01-13T03:58:18.949Z,-0.17
2023-01-13T03:59:18.894Z,-0.17
2023-01-13T04:00:18.893Z,0
2023-01-13T04:01:18.978Z,0
2023-01-13T04:02:18.956Z,-0.56
2023-01-13T04:03:18.879Z,-0.28
2023-01-13T04:04:18.874Z,0
2023-01-13T04:05:18.884Z,-0.17
2023-01-13T04:06:18.898Z,0
2023-01-13T04:07:18.890Z,-0.56
2023-01-13T04:08:18.906Z,-0.17
2023-01-13T04:09:18.890Z,-0.28
2023-01-13T04:10:18.887Z,-0.39
2023-01-13T04:11:18.887Z,-0.17
2023-01-13T04:12:18.899Z,-0.17
2023-01-13T04:13:18.890Z,0
2023-01-13T04:14:18.889Z,-0.17
2023-01-13T04:15:18.923Z,0
2023-01-13T04:16:18.905Z,0
2023-01-13T04:17:18.909Z,-0.17
2023-01-13T04:18:18.920Z,-0.28
2023-01-13T04:19:18.890Z,-0.28
2023-01-13T04:20:18.920Z,-0.28
2023-01-13T04:21:18.904Z,-0.17
2023-01-13T04:22:18.904Z,-0.28
2023-01-13T04:23:18.905Z,-0.17
2023-01-13T04:24:18.931Z,-0.17
2023-01-13T04:25:18.919Z,-0.28
2023-01-13T04:26:18.936Z,-0.17
2023-01-13T04:27:18.899Z,-0.17
2023-01-13T04:28:18.893Z,-0.39
2023-01-13T04:29:18.901Z,-0.56
2023-01-13T04:30:18.903Z,-0.67
2023-01-13T04:31:18.970Z,-0.17
2023-01-13T04:32:18.910Z,-0.28
2023-01-13T04:33:18.924Z,-0.17
2023-01-13T04:34:18.913Z,-0.39
2023-01-13T04:35:18.925Z,-0.56
2023-01-13T04:36:18.912Z,-0.67
2023-01-13T04:37:18.931Z,-0.39
2023-01-13T04:38:18.919Z,-0.67
2023-01-13T04:39:18.924Z,-0.17
2023-01-13T04:40:18.956Z,-0.39
2023-01-13T04:41:18.929Z,-0.17
2023-01-13T04:42:18.923Z,-0.39
2023-01-13T04:43:18.924Z,-0.28
2023-01-13T04:44:18.926Z,-0.28
2023-01-13T04:45:18.934Z,-0.39
2023-01-13T04:46:19.009Z,-0.28
2023-01-13T04:47:18.926Z,-0.39
2023-01-13T04:48:18.942Z,-0.39
2023-01-13T04:49:18.935Z,-0.56
2023-01-13T04:50:18.935Z,-0.28
2023-01-13T04:51:18.947Z,-0.17
2023-01-13T04:52:18.950Z,-0.39
2023-01-13T04:53:18.946Z,-0.28
2023-01-13T04:54:18.943Z,-0.28
2023-01-13T04:55:18.931Z,-0.56
2023-01-13T04:56:18.950Z,-0.28
2023-01-13T04:57:18.971Z,-0.17
2023-01-13T04:58:18.946Z,0
2023-01-13T04:59:18.954Z,0
2023-01-13T05:00:18.946Z,-0.17
2023-01-13T05:01:19.067Z,-0.17
2023-01-13T05:02:18.994Z,-0.28
2023-01-13T05:03:18.944Z,-0.17
2023-01-13T05:04:18.958Z,-0.39
2023-01-13T05:05:18.940Z,-0.56
2023-01-13T05:06:18.950Z,-0.28
2023-01-13T05:07:18.936Z,-0.39
2023-01-13T05:08:18.938Z,-0.28
2023-01-13T05:09:18.936Z,-0.39
2023-01-13T05:10:18.956Z,-0.39
2023-01-13T05:11:18.955Z,-0.39
2023-01-13T05:12:18.966Z,-0.39
2023-01-13T05:13:18.958Z,-0.67
2023-01-13T05:14:18.959Z,-0.67
2023-01-13T05:15:18.957Z,-0.39
2023-01-13T05:16:19.000Z,-0.83
2023-01-13T05:17:18.951Z,-0.39
2023-01-13T05:18:18.958Z,-0.67
2023-01-13T05:19:18.946Z,-0.17
2023-01-13T05:20:18.946Z,-0.28
2023-01-13T05:21:18.984Z,-0.17
2023-01-13T05:22:18.953Z,-0.28
2023-01-13T05:23:18.964Z,-0.17
2023-01-13T05:24:18.953Z,-0.56
2023-01-13T05:25:18.990Z,-0.56
2023-01-13T05:26:18.973Z,-0.67
2023-01-13T05:27:18.980Z,-0.56
2023-01-13T05:28:18.993Z,-0.56
2023-01-13T05:29:18.969Z,-0.39
2023-01-13T05:30:18.974Z,-0.56
2023-01-13T05:31:18.996Z,-0.28
2023-01-13T05:32:18.974Z,-0.28
2023-01-13T05:33:18.974Z,-0.39
2023-01-13T05:34:18.976Z,-0.39
2023-01-13T05:35:18.972Z,-0.39
2023-01-13T05:36:18.976Z,-0.67
2023-01-13T05:37:18.978Z,-0.39
2023-01-13T05:38:18.992Z,-0.39
2023-01-13T05:39:18.975Z,-0.39
2023-01-13T05:40:19.025Z,-0.67
2023-01-13T05:41:19.026Z,-0.56
2023-01-13T05:42:18.993Z,-0.56
2023-01-13T05:43:18.995Z,-0.67
2023-01-13T05:44:19.003Z,-0.39
2023-01-13T05:45:18.985Z,-0.56
2023-01-13T05:46:19.024Z,-0.39
2023-01-13T05:47:18.986Z,-0.56
2023-01-13T05:48:18.992Z,-0.39
2023-01-13T05:49:18.974Z,-0.39
2023-01-13T05:50:18.985Z,-0.39
2023-01-13T05:51:18.988Z,-0.67
2023-01-13T05:52:18.983Z,-0.39
2023-01-13T05:53:19.016Z,-0.39
2023-01-13T05:54:18.988Z,-0.67
2023-01-13T05:55:19.000Z,-0.67
2023-01-13T05:56:19.002Z,-0.56
2023-01-13T05:57:18.985Z,-0.39
2023-01-13T05:58:18.996Z,-0.39
2023-01-13T05:59:18.999Z,-0.39
2023-01-13T06:00:19.010Z,-0.39
2023-01-13T06:01:19.060Z,-0.28
2023-01-13T06:02:18.987Z,0
2023-01-13T06:03:19.029Z,-0.28
2023-01-13T06:04:19.054Z,0
2023-01-13T06:05:19.008Z,-0.17
2023-01-13T06:06:19.008Z,-0.28
2023-01-13T06:07:18.997Z,0
2023-01-13T06:08:19.099Z,-0.28
2023-01-13T06:09:18.997Z,-0.28
2023-01-13T06:10:18.990Z,-0.39
2023-01-13T06:11:18.990Z,-0.39
2023-01-13T06:12:18.998Z,-0.28
2023-01-13T06:13:18.995Z,-0.39
2023-01-13T06:14:18.997Z,-0.39
2023-01-13T06:15:19.021Z,-0.39
2023-01-13T06:16:19.144Z,-0.39
2023-01-13T06:17:19.008Z,-0.17
2023-01-13T06:18:19.005Z,-0.17
2023-01-13T06:19:19.001Z,-0.17
2023-01-13T06:20:19.010Z,0
2023-01-13T06:21:19.015Z,-0.17
2023-01-13T06:22:19.002Z,-0.17
2023-01-13T06:23:19.000Z,-0.17
2023-01-13T06:24:19.031Z,-0.17
2023-01-13T06:25:18.996Z,-0.17
2023-01-13T06:26:19.001Z,-0.17
2023-01-13T06:27:19.013Z,-0.28
2023-01-13T06:28:19.006Z,0
2023-01-13T06:29:19.011Z,0
2023-01-13T06:30:19.020Z,0
2023-01-13T06:31:19.073Z,0
2023-01-13T06:32:19.030Z,-0.17
2023-01-13T06:33:19.009Z,0
2023-01-13T06:34:19.020Z,-0.17
2023-01-13T06:35:19.037Z,-0.17
2023-01-13T06:36:19.024Z,-0.17
2023-01-13T06:37:19.011Z,-0.28
2023-01-13T06:38:19.023Z,-0.17
2023-01-13T06:39:19.022Z,-0.17
2023-01-13T06:40:19.026Z,-0.17
2023-01-13T06:41:19.010Z,0
2023-01-13T06:42:19.020Z,0.17
2023-01-13T06:43:19.035Z,0
2023-01-13T06:44:19.016Z,-0.17
2023-01-13T06:45:19.022Z,-0.17
2023-01-13T06:46:19.066Z,0
2023-01-13T06:47:19.030Z,-0.17
2023-01-13T06:48:19.062Z,0.17
2023-01-13T06:49:21.448Z,0
2023-01-13T06:50:19.052Z,-0.17
2023-01-13T06:51:19.016Z,-0.28
2023-01-13T06:52:19.034Z,0
2023-01-13T06:53:19.048Z,0
2023-01-13T06:54:19.021Z,0
2023-01-13T06:55:19.024Z,0
2023-01-13T06:56:19.031Z,-0.28
2023-01-13T06:57:19.015Z,0
2023-01-13T06:58:19.026Z,-0.28
2023-01-13T06:59:19.023Z,-0.17
2023-01-13T07:00:19.032Z,-0.28
2023-01-13T07:01:19.146Z,-0.17
2023-01-13T07:02:19.211Z,-0.28
2023-01-13T07:03:19.023Z,-0.28
2023-01-13T07:04:19.064Z,-0.17
2023-01-13T07:05:19.037Z,-0.17
2023-01-13T07:06:19.023Z,-0.17
2023-01-13T07:07:19.034Z,-0.28
2023-01-13T07:08:19.018Z,-0.17
2023-01-13T07:09:19.045Z,0
2023-01-13T07:10:19.024Z,-0.28
2023-01-13T07:11:19.030Z,-0.17
2023-01-13T07:12:19.026Z,-0.28
2023-01-13T07:13:19.033Z,-0.28
2023-01-13T07:14:19.037Z,-0.67
2023-01-13T07:15:19.019Z,0
2023-01-13T07:16:19.078Z,-0.28
2023-01-13T07:17:19.030Z,-0.17
2023-01-13T07:18:19.034Z,-0.17
2023-01-13T07:19:20.411Z,-0.39
2023-01-13T07:20:19.053Z,-0.28
2023-01-13T07:21:19.035Z,-0.39
2023-01-13T07:22:19.048Z,-0.28
2023-01-13T07:23:19.036Z,-0.17
2023-01-13T07:24:19.063Z,-0.17
2023-01-13T07:25:19.026Z,-0.17
2023-01-13T07:26:19.044Z,0
2023-01-13T07:27:19.055Z,0
2023-01-13T07:28:19.033Z,0.17
2023-01-13T07:29:19.037Z,0
2023-01-13T07:30:19.032Z,0.28
2023-01-13T07:31:19.085Z,0
2023-01-13T07:32:19.048Z,0
2023-01-13T07:33:19.045Z,0.17
2023-01-13T07:34:19.039Z,0.44
2023-01-13T07:35:19.043Z,0.17
2023-01-13T07:36:19.062Z,0.44
2023-01-13T07:37:19.030Z,0.44
2023-01-13T07:38:19.057Z,0.17
2023-01-13T07:39:19.041Z,0.44
2023-01-13T07:40:19.037Z,0
2023-01-13T07:41:19.029Z,0.28
2023-01-13T07:42:19.041Z,0.28
2023-01-13T07:43:19.040Z,0.61
2023-01-13T07:44:19.036Z,0.17
2023-01-13T07:45:19.035Z,0.44
2023-01-13T07:46:19.041Z,0.28
2023-01-13T07:47:19.047Z,0.44
2023-01-13T07:48:19.040Z,0.44
2023-01-13T07:49:19.038Z,0.28
2023-01-13T07:50:19.036Z,0.28
2023-01-13T07:51:19.069Z,0.28
2023-01-13T07:52:19.077Z,0.61
2023-01-13T07:53:19.047Z,0.28
2023-01-13T07:54:19.415Z,0.61
2023-01-13T07:55:19.047Z,0.28
2023-01-13T07:56:19.043Z,0.72
2023-01-13T07:57:19.049Z,0.61
2023-01-13T07:58:19.046Z,0.44
2023-01-13T07:59:19.060Z,0.61
2023-01-13T08:00:19.047Z,0.61
2023-01-13T08:01:19.133Z,0.44
2023-01-13T08:02:19.264Z,0.17
2023-01-13T08:03:19.047Z,0.28
2023-01-13T08:04:19.051Z,0.28
2023-01-13T08:05:19.056Z,0.61
2023-01-13T08:06:19.055Z,0.17
2023-01-13T08:07:19.062Z,0.89
2023-01-13T08:08:19.105Z,0.61
2023-01-13T08:09:19.049Z,0.89
2023-01-13T08:10:19.059Z,0.89
2023-01-13T08:11:19.046Z,0.44
2023-01-13T08:12:19.065Z,0.44
2023-01-13T08:13:19.057Z,0.28
2023-01-13T08:14:19.053Z,0.89
2023-01-13T08:15:19.059Z,0.72
2023-01-13T08:16:19.116Z,0.28
2023-01-13T08:17:20.513Z,0.72
2023-01-13T08:18:19.056Z,0.44
2023-01-13T08:19:19.058Z,0.61
2023-01-13T08:20:19.055Z,0.72
2023-01-13T08:21:19.109Z,0.17
2023-01-13T08:22:19.065Z,0.17
2023-01-13T08:23:19.061Z,0.61
2023-01-13T08:24:19.085Z,0.72
2023-01-13T08:25:19.057Z,0.89
2023-01-13T08:26:19.065Z,0.28
2023-01-13T08:27:19.057Z,0.61
2023-01-13T08:28:19.057Z,0.89
2023-01-13T08:29:19.065Z,0.72
2023-01-13T08:30:19.076Z,0.61
2023-01-13T08:31:19.089Z,0.89
2023-01-13T08:32:19.072Z,0.89
2023-01-13T08:33:19.079Z,0.89
2023-01-13T08:34:19.065Z,0.89
2023-01-13T08:35:19.062Z,0.89
2023-01-13T08:36:19.067Z,1.06
2023-01-13T08:37:19.072Z,0.89
2023-01-13T08:38:19.063Z,1.17
2023-01-13T08:39:19.077Z,1.17
2023-01-13T08:40:19.113Z,1.06
2023-01-13T08:41:19.075Z,1.06
2023-01-13T08:42:19.067Z,1.06
2023-01-13T08:43:19.069Z,1.33
2023-01-13T08:44:19.077Z,0.89
2023-01-13T08:45:19.093Z,0.61
2023-01-13T08:46:19.157Z,0.89
2023-01-13T08:47:19.075Z,0.72
2023-01-13T08:48:19.079Z,0.89
2023-01-13T08:49:19.095Z,0.44
2023-01-13T08:50:19.087Z,0.72
2023-01-13T08:51:19.070Z,0.72
2023-01-13T08:52:19.080Z,0.89
2023-01-13T08:53:19.078Z,0.61
2023-01-13T08:54:19.083Z,0.89
2023-01-13T08:55:19.077Z,0.89
2023-01-13T08:56:19.113Z,0.89
2023-01-13T08:57:19.121Z,0.89
2023-01-13T08:58:19.076Z,1.06
2023-01-13T08:59:19.083Z,1.33
2023-01-13T09:00:19.098Z,1.06
2023-01-13T09:01:19.270Z,1.33
2023-01-13T09:02:19.222Z,1.5
2023-01-13T09:03:19.081Z,1.06
2023-01-13T09:04:19.099Z,1.17
2023-01-13T09:05:19.083Z,1.06
2023-01-13T09:06:19.075Z,0.72
2023-01-13T09:07:19.088Z,0.72
2023-01-13T09:08:19.074Z,0.28
2023-01-13T09:09:19.112Z,0.72
2023-01-13T09:10:19.092Z,0.72
2023-01-13T09:11:19.084Z,0.89
2023-01-13T09:12:19.162Z,0.72
2023-01-13T09:13:19.083Z,0.72
2023-01-13T09:14:19.084Z,0.61
2023-01-13T09:15:19.101Z,1.17
2023-01-13T09:16:19.204Z,1.06
2023-01-13T09:17:19.091Z,0.72
2023-01-13T09:18:19.101Z,1.5
2023-01-13T09:19:19.090Z,0.44
2023-01-13T09:20:19.104Z,0.89
2023-01-13T09:21:19.094Z,1.06
2023-01-13T09:22:19.101Z,1.33
2023-01-13T09:23:19.100Z,0.89
2023-01-13T09:24:19.100Z,0.72
2023-01-13T09:25:19.089Z,0.89
2023-01-13T09:26:19.133Z,1.06
2023-01-13T09:27:19.103Z,1.5
2023-01-13T09:28:19.121Z,1.5
2023-01-13T09:29:19.104Z,1.33
2023-01-13T09:30:19.105Z,1.5
2023-01-13T09:31:19.170Z,1.72
2023-01-13T09:32:19.108Z,1.61
2023-01-13T09:33:19.124Z,1.33
2023-01-13T09:34:19.100Z,1.5
2023-01-13T09:35:19.086Z,1.61
2023-01-13T09:36:19.100Z,1.72
2023-01-13T09:37:19.110Z,1.72
2023-01-13T09:38:19.115Z,1.61
2023-01-13T09:39:19.514Z,1.5
2023-01-13T09:40:19.102Z,1.17
2023-01-13T09:41:19.110Z,1.5
2023-01-13T09:42:19.097Z,1.5
2023-01-13T09:43:19.108Z,1.5
2023-01-13T09:44:19.140Z,1.61
2023-01-13T09:45:19.115Z,1.5
2023-01-13T09:46:19.134Z,1.72
2023-01-13T09:47:19.114Z,1.61
2023-01-13T09:48:19.144Z,1.5
2023-01-13T09:49:19.115Z,1.61
2023-01-13T09:50:19.118Z,1.72
2023-01-13T09:51:19.185Z,1.06
2023-01-13T09:52:19.112Z,1.33
2023-01-13T09:53:19.116Z,1.33
2023-01-13T09:54:19.119Z,1.5
2023-01-13T09:55:19.138Z,1.61
2023-01-13T09:56:19.112Z,1.61
2023-01-13T09:57:19.123Z,1.72
2023-01-13T09:58:19.130Z,1.61
2023-01-13T09:59:19.119Z,1.72
2023-01-13T10:00:19.149Z,1.89
2023-01-13T10:01:19.143Z,1.72
2023-01-13T10:02:19.120Z,1.72
2023-01-13T10:03:19.254Z,1.89
2023-01-13T10:04:19.168Z,2
2023-01-13T10:05:19.131Z,1.89
2023-01-13T10:06:19.127Z,2
2023-01-13T10:07:19.121Z,1.89
2023-01-13T10:08:19.127Z,2.17
2023-01-13T10:09:19.137Z,2.44
2023-01-13T10:10:19.122Z,2.17
2023-01-13T10:11:19.121Z,2.28
2023-01-13T10:12:19.131Z,2
2023-01-13T10:13:19.129Z,1.72
2023-01-13T10:14:19.129Z,1.89
2023-01-13T10:15:19.132Z,1.72
2023-01-13T10:16:19.263Z,1.61
2023-01-13T10:17:19.169Z,1.72
2023-01-13T10:18:19.277Z,1.89
2023-01-13T10:19:19.123Z,1.33
2023-01-13T10:20:19.146Z,1.72
2023-01-13T10:21:19.135Z,1.89
2023-01-13T10:22:19.131Z,1.72
2023-01-13T10:23:19.132Z,2.17
2023-01-13T10:24:19.151Z,2.17
2023-01-13T10:25:19.125Z,2.44
2023-01-13T10:26:19.228Z,2.28
2023-01-13T10:27:19.121Z,1.89
2023-01-13T10:28:19.384Z,2
2023-01-13T10:29:19.152Z,2
2023-01-13T10:30:19.197Z,1.5
2023-01-13T10:31:19.192Z,1.5
2023-01-13T10:32:19.153Z,1.72
2023-01-13T10:33:19.134Z,1.89
2023-01-13T10:34:19.127Z,2.17
2023-01-13T10:35:19.136Z,2.17
2023-01-13T10:36:19.144Z,1.89
2023-01-13T10:37:19.187Z,2.44
2023-01-13T10:38:19.198Z,2.72
2023-01-13T10:39:19.138Z,3
2023-01-13T10:40:19.202Z,3
2023-01-13T10:41:19.140Z,3
2023-01-13T10:42:19.147Z,3
2023-01-13T10:43:19.141Z,3.44
2023-01-13T10:44:19.175Z,3.72
2023-01-13T10:45:19.133Z,4
2023-01-13T10:46:19.260Z,3.72
2023-01-13T10:47:19.147Z,3.83
2023-01-13T10:48:19.168Z,3.44
2023-01-13T10:49:19.133Z,3.44
2023-01-13T10:50:19.147Z,2.89
2023-01-13T10:51:19.141Z,2.89
2023-01-13T10:52:19.313Z,2.89
2023-01-13T10:53:19.145Z,3.17
2023-01-13T10:54:19.152Z,3.33
2023-01-13T10:55:19.135Z,3.33
2023-01-13T10:56:19.149Z,3.33
2023-01-13T10:57:19.161Z,3.17
2023-01-13T10:58:19.141Z,3.17
2023-01-13T10:59:19.141Z,3.17
2023-01-13T11:00:19.147Z,3
2023-01-13T11:01:19.319Z,2.72
2023-01-13T11:02:25.540Z,2.72
2023-01-13T11:03:19.143Z,2.72
2023-01-13T11:04:19.196Z,2.89
2023-01-13T11:05:19.168Z,3.44
2023-01-13T11:06:19.175Z,3.17
2023-01-13T11:07:19.175Z,2.89
2023-01-13T11:08:19.155Z,2.72
2023-01-13T11:09:19.160Z,2.28
2023-01-13T11:10:19.149Z,2.61
2023-01-13T11:11:19.151Z,2.28
2023-01-13T11:12:19.144Z,2.28
2023-01-13T11:13:19.167Z,2.83
2023-01-13T11:14:19.151Z,2.44
2023-01-13T11:15:19.171Z,2.44
2023-01-13T11:16:19.285Z,2.44
2023-01-13T11:17:19.172Z,2.67
2023-01-13T11:18:19.170Z,2.61
2023-01-13T11:19:19.155Z,2.61
2023-01-13T11:20:19.189Z,2.72
2023-01-13T11:21:19.156Z,2.61
2023-01-13T11:22:19.152Z,3
2023-01-13T11:23:19.156Z,3
2023-01-13T11:24:19.160Z,2.56
2023-01-13T11:25:19.165Z,2.28
2023-01-13T11:26:19.177Z,2.39
2023-01-13T11:27:19.172Z,2.39
2023-01-13T11:28:19.172Z,2.56
2023-01-13T11:29:19.170Z,2.78
2023-01-13T11:30:19.159Z,2.89
2023-01-13T11:31:19.236Z,3.11
2023-01-13T11:32:19.166Z,3.17
2023-01-13T11:33:19.172Z,3.28
2023-01-13T11:34:19.166Z,2.78
2023-01-13T11:35:19.200Z,2.83
2023-01-13T11:36:20.562Z,2.39
2023-01-13T11:37:19.161Z,2.72
2023-01-13T11:38:19.171Z,2.56
2023-01-13T11:39:19.176Z,2.39
2023-01-13T11:40:19.176Z,2.56
2023-01-13T11:41:19.169Z,2.83
2023-01-13T11:42:19.169Z,3.11
2023-01-13T11:43:19.199Z,3.28
2023-01-13T11:44:19.171Z,3.11
2023-01-13T11:45:19.180Z,3.67
2023-01-13T11:46:19.220Z,3.89
2023-01-13T11:47:19.178Z,3.94
2023-01-13T11:48:19.171Z,3.94
2023-01-13T11:49:20.833Z,3.94
2023-01-13T11:50:19.173Z,3.78
2023-01-13T11:51:19.191Z,3.56
2023-01-13T11:52:19.199Z,3.56
2023-01-13T11:53:19.191Z,3.67
2023-01-13T11:54:19.184Z,3.94
2023-01-13T11:55:20.191Z,4.11
2023-01-13T11:56:19.164Z,3.78
2023-01-13T11:57:19.171Z,4.11
2023-01-13T11:58:19.174Z,3.56
2023-01-13T11:59:19.180Z,3.39
2023-01-13T12:00:19.169Z,3.28
2023-01-13T12:01:20.923Z,3.28
2023-01-13T12:02:19.258Z,3.39
2023-01-13T12:03:19.236Z,3.56
2023-01-13T12:04:19.164Z,3.56
2023-01-13T12:05:19.182Z,3.67
2023-01-13T12:06:19.191Z,3.56
2023-01-13T12:07:20.767Z,4.11
2023-01-13T12:08:19.310Z,4.22
2023-01-13T12:09:19.188Z,4.11
2023-01-13T12:10:19.172Z,4.39
2023-01-13T12:11:19.183Z,4.39
2023-01-13T12:12:19.181Z,3.94
2023-01-13T12:13:19.187Z,3.94
2023-01-13T12:14:19.178Z,4.11
2023-01-13T12:15:19.180Z,3.94
2023-01-13T12:16:19.249Z,3.94
2023-01-13T12:17:19.193Z,4.11
2023-01-13T12:18:19.178Z,3.94
2023-01-13T12:19:19.185Z,4.22
2023-01-13T12:20:19.189Z,4.11
2023-01-13T12:21:19.187Z,3.78
2023-01-13T12:22:19.211Z,3.67
2023-01-13T12:23:19.185Z,3.78
2023-01-13T12:24:19.242Z,3.94
2023-01-13T12:25:19.177Z,4.11
2023-01-13T12:26:19.190Z,4.5
2023-01-13T12:27:19.189Z,4.5
2023-01-13T12:28:19.237Z,4.5
2023-01-13T12:29:19.189Z,3.94
2023-01-13T12:30:19.210Z,4.22
2023-01-13T12:31:19.265Z,4.39
2023-01-13T12:32:19.189Z,4.39
2023-01-13T12:33:19.188Z,4.11
2023-01-13T12:34:19.190Z,4.22
2023-01-13T12:35:19.195Z,3.94
2023-01-13T12:36:19.191Z,4.11
2023-01-13T12:37:19.197Z,4.11
2023-01-13T12:38:19.225Z,3.56
2023-01-13T12:39:19.195Z,3.67
2023-01-13T12:40:19.240Z,3.56
2023-01-13T12:41:19.195Z,3.28
2023-01-13T12:42:19.193Z,3.39
2023-01-13T12:43:19.189Z,3
2023-01-13T12:44:19.195Z,3.11
2023-01-13T12:45:19.204Z,3
2023-01-13T12:46:19.195Z,3.11
2023-01-13T12:47:19.208Z,3.56
2023-01-13T12:48:19.195Z,4.11
2023-01-13T12:49:19.192Z,3.67
2023-01-13T12:50:19.199Z,4.11
2023-01-13T12:51:19.187Z,3.67
2023-01-13T12:52:19.206Z,3.94
2023-01-13T12:53:19.184Z,3.39
2023-01-13T12:54:19.203Z,3.28
2023-01-13T12:55:19.210Z,3
2023-01-13T12:56:19.207Z,3.56
2023-01-13T12:57:19.195Z,3.56
2023-01-13T12:58:19.214Z,3.56
2023-01-13T12:59:19.260Z,3.67
2023-01-13T13:00:19.195Z,3.28
2023-01-13T13:01:19.316Z,2.83
2023-01-13T13:02:19.377Z,2.83
2023-01-13T13:03:19.544Z,3.11
2023-01-13T13:04:19.199Z,3.56
2023-01-13T13:05:19.203Z,3.28
2023-01-13T13:06:19.198Z,3.39
2023-01-13T13:07:19.194Z,3.28
2023-01-13T13:08:19.208Z,3.56
2023-01-13T13:09:19.203Z,3.67
2023-01-13T13:10:19.213Z,3.78
2023-01-13T13:11:19.204Z,3.94